sensor_id;sensor_type;location;lat;lon;timestamp;P1;durP1;ratioP1;P2;durP2;ratioP2
80409;SDS011;69746;45.596;10.154;2023-08-20T00:02:20;3.10;;;2.80;;
80409;SDS011;69746;45.596;10.154;2023-08-20T00:04:49;2.70;;;2.50;;
80409;SDS011;69746;45.596;10.154;2023-08-20T00:07:16;3.38;;;3.05;;
80409;SDS011;69746;45.596;10.154;2023-08-20T00:09:44;4.53;;;2.95;;
80409;SDS011;69746;45.596;10.154;2023-08-20T00:12:09;3.25;;;2.95;;
80409;SDS011;69746;45.596;10.154;2023-08-20T00:17:30;3.25;;;2.95;;
80409;SDS011;69746;45.596;10.154;2023-08-20T00:20:00;2.67;;;2.47;;
80409;SDS011;69746;45.596;10.154;2023-08-20T00:22:30;3.22;;;2.92;;
80409;SDS011;69746;45.596;10.154;2023-08-20T00:24:57;3.47;;;3.17;;
80409;SDS011;69746;45.596;10.154;2023-08-20T00:27:23;2.55;;;2.35;;
80409;SDS011;69746;45.596;10.154;2023-08-20T00:29:51;2.83;;;2.53;;
80409;SDS011;69746;45.596;10.154;2023-08-20T00:32:17;3.00;;;2.70;;
80409;SDS011;69746;45.596;10.154;2023-08-20T00:34:43;2.55;;;2.35;;
80409;SDS011;69746;45.596;10.154;2023-08-20T00:37:09;3.10;;;2.80;;
80409;SDS011;69746;45.596;10.154;2023-08-20T00:39:34;2.85;;;2.47;;
80409;SDS011;69746;45.596;10.154;2023-08-20T00:42:00;3.10;;;2.80;;
80409;SDS011;69746;45.596;10.154;2023-08-20T00:44:26;3.00;;;2.70;;
80409;SDS011;69746;45.596;10.154;2023-08-20T00:46:52;3.05;;;2.70;;
80409;SDS011;69746;45.596;10.154;2023-08-20T00:49:19;2.95;;;2.65;;
80409;SDS011;69746;45.596;10.154;2023-08-20T00:51:45;3.00;;;2.63;;
80409;SDS011;69746;45.596;10.154;2023-08-20T00:54:13;3.10;;;2.80;;
80409;SDS011;69746;45.596;10.154;2023-08-20T00:56:41;2.95;;;2.65;;
80409;SDS011;69746;45.596;10.154;2023-08-20T00:59:07;2.88;;;2.50;;
80409;SDS011;69746;45.596;10.154;2023-08-20T01:01:33;3.50;;;2.45;;
80409;SDS011;69746;45.596;10.154;2023-08-20T01:03:59;3.30;;;3.00;;
80409;SDS011;69746;45.596;10.154;2023-08-20T01:09:23;3.38;;;3.08;;
80409;SDS011;69746;45.596;10.154;2023-08-20T01:12:05;2.92;;;2.70;;
80409;SDS011;69746;45.596;10.154;2023-08-20T01:14:32;2.70;;;2.40;;
80409;SDS011;69746;45.596;10.154;2023-08-20T01:16:57;3.38;;;3.08;;
80409;SDS011;69746;45.596;10.154;2023-08-20T01:19:26;2.88;;;2.58;;
80409;SDS011;69746;45.596;10.154;2023-08-20T01:29:40;2.75;;;2.55;;
80409;SDS011;69746;45.596;10.154;2023-08-20T01:32:07;2.90;;;2.60;;
80409;SDS011;69746;45.596;10.154;2023-08-20T01:34:33;2.67;;;2.47;;
80409;SDS011;69746;45.596;10.154;2023-08-20T01:36:59;3.10;;;2.80;;
80409;SDS011;69746;45.596;10.154;2023-08-20T01:39:25;2.85;;;2.55;;
80409;SDS011;69746;45.596;10.154;2023-08-20T01:41:51;2.85;;;2.50;;
80409;SDS011;69746;45.596;10.154;2023-08-20T01:44:17;3.00;;;2.70;;
80409;SDS011;69746;45.596;10.154;2023-08-20T01:46:46;2.92;;;2.60;;
80409;SDS011;69746;45.596;10.154;2023-08-20T01:49:14;3.10;;;2.80;;
80409;SDS011;69746;45.596;10.154;2023-08-20T01:51:41;2.95;;;2.65;;
80409;SDS011;69746;45.596;10.154;2023-08-20T01:54:06;2.63;;;2.42;;
80409;SDS011;69746;45.596;10.154;2023-08-20T01:56:33;2.50;;;2.30;;
80409;SDS011;69746;45.596;10.154;2023-08-20T01:58:58;2.63;;;2.42;;
80409;SDS011;69746;45.596;10.154;2023-08-20T02:01:24;2.90;;;2.70;;
80409;SDS011;69746;45.596;10.154;2023-08-20T02:03:50;2.50;;;2.30;;
80409;SDS011;69746;45.596;10.154;2023-08-20T02:06:16;3.20;;;2.90;;
80409;SDS011;69746;45.596;10.154;2023-08-20T02:08:41;2.78;;;2.50;;
80409;SDS011;69746;45.596;10.154;2023-08-20T02:11:10;2.63;;;2.42;;
80409;SDS011;69746;45.596;10.154;2023-08-20T02:13:35;2.72;;;2.53;;
80409;SDS011;69746;45.596;10.154;2023-08-20T02:16:02;2.78;;;2.47;;
80409;SDS011;69746;45.596;10.154;2023-08-20T02:18:29;2.60;;;2.30;;
80409;SDS011;69746;45.596;10.154;2023-08-20T02:20:56;3.30;;;3.00;;
80409;SDS011;69746;45.596;10.154;2023-08-20T02:23:22;2.45;;;2.25;;
80409;SDS011;69746;45.596;10.154;2023-08-20T02:25:48;3.03;;;2.72;;
80409;SDS011;69746;45.596;10.154;2023-08-20T02:28:14;3.17;;;2.63;;
80409;SDS011;69746;45.596;10.154;2023-08-20T02:30:41;2.60;;;2.40;;
80409;SDS011;69746;45.596;10.154;2023-08-20T02:33:08;3.00;;;2.70;;
80409;SDS011;69746;45.596;10.154;2023-08-20T02:35:36;2.60;;;2.40;;
80409;SDS011;69746;45.596;10.154;2023-08-20T02:40:40;2.85;;;2.58;;
80409;SDS011;69746;45.596;10.154;2023-08-20T02:43:06;3.30;;;3.00;;
80409;SDS011;69746;45.596;10.154;2023-08-20T02:45:32;2.85;;;2.40;;
80409;SDS011;69746;45.596;10.154;2023-08-20T02:47:59;3.03;;;2.72;;
80409;SDS011;69746;45.596;10.154;2023-08-20T02:50:25;2.60;;;2.40;;
80409;SDS011;69746;45.596;10.154;2023-08-20T02:52:51;2.95;;;2.60;;
80409;SDS011;69746;45.596;10.154;2023-08-20T02:55:23;2.47;;;2.28;;
80409;SDS011;69746;45.596;10.154;2023-08-20T02:57:48;2.42;;;2.22;;
80409;SDS011;69746;45.596;10.154;2023-08-20T03:00:14;2.90;;;2.45;;
80409;SDS011;69746;45.596;10.154;2023-08-20T03:02:41;2.60;;;2.40;;
80409;SDS011;69746;45.596;10.154;2023-08-20T03:05:07;2.28;;;2.08;;
80409;SDS011;69746;45.596;10.154;2023-08-20T03:07:35;2.45;;;2.25;;
80409;SDS011;69746;45.596;10.154;2023-08-20T03:10:00;2.90;;;2.60;;
80409;SDS011;69746;45.596;10.154;2023-08-20T03:12:28;2.67;;;2.47;;
80409;SDS011;69746;45.596;10.154;2023-08-20T03:14:54;2.90;;;2.53;;
80409;SDS011;69746;45.596;10.154;2023-08-20T03:17:20;2.60;;;2.40;;
80409;SDS011;69746;45.596;10.154;2023-08-20T03:19:55;3.03;;;2.72;;
80409;SDS011;69746;45.596;10.154;2023-08-20T03:22:23;2.50;;;2.30;;
80409;SDS011;69746;45.596;10.154;2023-08-20T03:24:49;2.30;;;2.03;;
80409;SDS011;69746;45.596;10.154;2023-08-20T03:27:16;2.97;;;2.67;;
80409;SDS011;69746;45.596;10.154;2023-08-20T03:29:43;2.97;;;2.67;;
80409;SDS011;69746;45.596;10.154;2023-08-20T03:32:10;2.95;;;2.65;;
80409;SDS011;69746;45.596;10.154;2023-08-20T03:34:35;2.42;;;2.22;;
80409;SDS011;69746;45.596;10.154;2023-08-20T03:37:01;2.40;;;2.20;;
80409;SDS011;69746;45.596;10.154;2023-08-20T03:39:28;3.25;;;2.95;;
80409;SDS011;69746;45.596;10.154;2023-08-20T03:41:53;2.50;;;2.30;;
80409;SDS011;69746;45.596;10.154;2023-08-20T03:44:19;2.67;;;2.47;;
80409;SDS011;69746;45.596;10.154;2023-08-20T03:46:48;2.97;;;2.42;;
80409;SDS011;69746;45.596;10.154;2023-08-20T03:49:14;2.60;;;2.40;;
80409;SDS011;69746;45.596;10.154;2023-08-20T03:51:39;3.00;;;2.72;;
80409;SDS011;69746;45.596;10.154;2023-08-20T03:54:06;2.83;;;2.53;;
80409;SDS011;69746;45.596;10.154;2023-08-20T03:56:32;2.95;;;2.65;;
80409;SDS011;69746;45.596;10.154;2023-08-20T03:58:57;2.90;;;2.60;;
80409;SDS011;69746;45.596;10.154;2023-08-20T04:01:23;2.83;;;2.53;;
80409;SDS011;69746;45.596;10.154;2023-08-20T04:03:49;2.50;;;2.30;;
80409;SDS011;69746;45.596;10.154;2023-08-20T04:06:15;2.75;;;2.50;;
80409;SDS011;69746;45.596;10.154;2023-08-20T04:08:41;2.30;;;2.10;;
80409;SDS011;69746;45.596;10.154;2023-08-20T04:11:10;2.58;;;2.38;;
80409;SDS011;69746;45.596;10.154;2023-08-20T04:13:36;3.10;;;2.80;;
80409;SDS011;69746;45.596;10.154;2023-08-20T04:16:02;2.92;;;2.50;;
80409;SDS011;69746;45.596;10.154;2023-08-20T04:18:28;2.50;;;2.28;;
80409;SDS011;69746;45.596;10.154;2023-08-20T04:20:54;2.97;;;2.75;;
80409;SDS011;69746;45.596;10.154;2023-08-20T04:23:21;2.60;;;2.38;;
80409;SDS011;69746;45.596;10.154;2023-08-20T04:25:47;2.85;;;2.55;;
80409;SDS011;69746;45.596;10.154;2023-08-20T04:28:12;2.60;;;2.40;;
80409;SDS011;69746;45.596;10.154;2023-08-20T04:30:38;2.90;;;2.60;;
80409;SDS011;69746;45.596;10.154;2023-08-20T04:33:04;3.20;;;2.90;;
80409;SDS011;69746;45.596;10.154;2023-08-20T04:35:30;2.90;;;2.70;;
80409;SDS011;69746;45.596;10.154;2023-08-20T04:37:59;2.50;;;2.30;;
80409;SDS011;69746;45.596;10.154;2023-08-20T04:40:25;3.00;;;2.50;;
80409;SDS011;69746;45.596;10.154;2023-08-20T04:42:51;3.10;;;2.80;;
80409;SDS011;69746;45.596;10.154;2023-08-20T04:45:17;2.85;;;2.55;;
80409;SDS011;69746;45.596;10.154;2023-08-20T04:47:45;2.53;;;2.33;;
80409;SDS011;69746;45.596;10.154;2023-08-20T04:50:11;3.10;;;2.80;;
80409;SDS011;69746;45.596;10.154;2023-08-20T04:52:38;2.42;;;2.20;;
80409;SDS011;69746;45.596;10.154;2023-08-20T04:55:04;2.50;;;2.28;;
80409;SDS011;69746;45.596;10.154;2023-08-20T04:57:33;2.40;;;2.15;;
80409;SDS011;69746;45.596;10.154;2023-08-20T04:59:59;3.10;;;2.83;;
80409;SDS011;69746;45.596;10.154;2023-08-20T05:02:27;2.80;;;2.50;;
80409;SDS011;69746;45.596;10.154;2023-08-20T05:04:53;2.75;;;2.40;;
80409;SDS011;69746;45.596;10.154;2023-08-20T05:07:19;2.53;;;2.33;;
80409;SDS011;69746;45.596;10.154;2023-08-20T05:09:45;2.53;;;2.33;;
80409;SDS011;69746;45.596;10.154;2023-08-20T05:12:11;2.53;;;2.33;;
80409;SDS011;69746;45.596;10.154;2023-08-20T05:14:37;2.70;;;2.50;;
80409;SDS011;69746;45.596;10.154;2023-08-20T05:17:02;2.80;;;2.50;;
80409;SDS011;69746;45.596;10.154;2023-08-20T05:19:28;2.50;;;2.30;;
80409;SDS011;69746;45.596;10.154;2023-08-20T05:21:54;2.55;;;2.35;;
80409;SDS011;69746;45.596;10.154;2023-08-20T05:24:24;2.25;;;2.03;;
80409;SDS011;69746;45.596;10.154;2023-08-20T05:29:45;3.00;;;2.70;;
80409;SDS011;69746;45.596;10.154;2023-08-20T05:32:11;3.08;;;2.78;;
80409;SDS011;69746;45.596;10.154;2023-08-20T05:34:37;2.92;;;2.63;;
80409;SDS011;69746;45.596;10.154;2023-08-20T05:37:03;2.50;;;2.30;;
80409;SDS011;69746;45.596;10.154;2023-08-20T05:39:30;2.63;;;2.30;;
80409;SDS011;69746;45.596;10.154;2023-08-20T05:42:01;2.85;;;2.65;;
80409;SDS011;69746;45.596;10.154;2023-08-20T05:44:27;3.03;;;2.72;;
80409;SDS011;69746;45.596;10.154;2023-08-20T05:46:53;2.75;;;2.53;;
80409;SDS011;69746;45.596;10.154;2023-08-20T05:49:19;2.92;;;2.63;;
80409;SDS011;69746;45.596;10.154;2023-08-20T05:51:47;2.92;;;2.63;;
80409;SDS011;69746;45.596;10.154;2023-08-20T05:54:13;3.20;;;2.90;;
80409;SDS011;69746;45.596;10.154;2023-08-20T05:56:39;3.20;;;2.90;;
80409;SDS011;69746;45.596;10.154;2023-08-20T05:59:05;2.63;;;2.42;;
80409;SDS011;69746;45.596;10.154;2023-08-20T06:01:30;2.60;;;2.33;;
80409;SDS011;69746;45.596;10.154;2023-08-20T06:03:56;2.60;;;2.40;;
80409;SDS011;69746;45.596;10.154;2023-08-20T06:06:22;2.70;;;2.50;;
80409;SDS011;69746;45.596;10.154;2023-08-20T06:08:48;2.90;;;2.60;;
80409;SDS011;69746;45.596;10.154;2023-08-20T06:11:14;2.83;;;2.53;;
80409;SDS011;69746;45.596;10.154;2023-08-20T06:13:40;2.70;;;2.33;;
80409;SDS011;69746;45.596;10.154;2023-08-20T06:16:07;2.60;;;2.40;;
80409;SDS011;69746;45.596;10.154;2023-08-20T06:18:35;2.67;;;2.47;;
80409;SDS011;69746;45.596;10.154;2023-08-20T06:21:02;2.60;;;2.40;;
80409;SDS011;69746;45.596;10.154;2023-08-20T06:23:28;2.60;;;2.40;;
80409;SDS011;69746;45.596;10.154;2023-08-20T06:25:54;2.92;;;2.60;;
80409;SDS011;69746;45.596;10.154;2023-08-20T06:28:20;3.15;;;2.85;;
80409;SDS011;69746;45.596;10.154;2023-08-20T06:30:46;2.80;;;2.50;;
80409;SDS011;69746;45.596;10.154;2023-08-20T06:33:12;2.90;;;2.60;;
80409;SDS011;69746;45.596;10.154;2023-08-20T06:35:38;3.15;;;2.85;;
80409;SDS011;69746;45.596;10.154;2023-08-20T06:38:04;3.22;;;2.92;;
80409;SDS011;69746;45.596;10.154;2023-08-20T06:40:30;2.60;;;2.40;;
80409;SDS011;69746;45.596;10.154;2023-08-20T06:42:56;2.47;;;2.28;;
80409;SDS011;69746;45.596;10.154;2023-08-20T06:45:25;3.00;;;2.70;;
80409;SDS011;69746;45.596;10.154;2023-08-20T06:47:50;3.40;;;3.10;;
80409;SDS011;69746;45.596;10.154;2023-08-20T06:50:16;2.88;;;2.40;;
80409;SDS011;69746;45.596;10.154;2023-08-20T06:52:42;2.65;;;2.45;;
80409;SDS011;69746;45.596;10.154;2023-08-20T06:55:09;2.80;;;2.60;;
80409;SDS011;69746;45.596;10.154;2023-08-20T06:57:35;3.00;;;2.70;;
80409;SDS011;69746;45.596;10.154;2023-08-20T07:00:07;4.85;;;2.90;;
80409;SDS011;69746;45.596;10.154;2023-08-20T07:02:33;3.03;;;2.72;;
80409;SDS011;69746;45.596;10.154;2023-08-20T07:04:59;2.88;;;2.58;;
80409;SDS011;69746;45.596;10.154;2023-08-20T07:07:28;2.40;;;2.13;;
80409;SDS011;69746;45.596;10.154;2023-08-20T07:09:54;2.70;;;2.47;;
80409;SDS011;69746;45.596;10.154;2023-08-20T07:12:20;3.33;;;3.03;;
80409;SDS011;69746;45.596;10.154;2023-08-20T07:14:46;2.72;;;2.53;;
80409;SDS011;69746;45.596;10.154;2023-08-20T07:17:12;2.85;;;2.65;;
80409;SDS011;69746;45.596;10.154;2023-08-20T07:19:38;3.00;;;2.70;;
80409;SDS011;69746;45.596;10.154;2023-08-20T07:22:04;2.75;;;2.55;;
80409;SDS011;69746;45.596;10.154;2023-08-20T07:24:30;2.78;;;2.58;;
80409;SDS011;69746;45.596;10.154;2023-08-20T07:27:00;2.65;;;2.45;;
80409;SDS011;69746;45.596;10.154;2023-08-20T07:29:29;2.72;;;2.53;;
80409;SDS011;69746;45.596;10.154;2023-08-20T07:32:01;3.22;;;2.92;;
80409;SDS011;69746;45.596;10.154;2023-08-20T07:34:28;3.25;;;2.95;;
80409;SDS011;69746;45.596;10.154;2023-08-20T07:36:56;3.10;;;2.80;;
80409;SDS011;69746;45.596;10.154;2023-08-20T07:39:22;3.00;;;2.70;;
80409;SDS011;69746;45.596;10.154;2023-08-20T07:41:48;3.20;;;2.90;;
80409;SDS011;69746;45.596;10.154;2023-08-20T07:44:14;2.58;;;2.38;;
80409;SDS011;69746;45.596;10.154;2023-08-20T07:46:40;2.58;;;2.35;;
80409;SDS011;69746;45.596;10.154;2023-08-20T07:49:06;3.00;;;2.60;;
80409;SDS011;69746;45.596;10.154;2023-08-20T07:51:34;2.90;;;2.70;;
80409;SDS011;69746;45.596;10.154;2023-08-20T07:54:00;3.08;;;2.78;;
80409;SDS011;69746;45.596;10.154;2023-08-20T07:56:26;3.47;;;3.17;;
80409;SDS011;69746;45.596;10.154;2023-08-20T07:58:52;3.05;;;2.78;;
80409;SDS011;69746;45.596;10.154;2023-08-20T08:01:17;2.97;;;2.75;;
80409;SDS011;69746;45.596;10.154;2023-08-20T08:03:43;3.35;;;3.05;;
80409;SDS011;69746;45.596;10.154;2023-08-20T08:06:09;3.45;;;3.15;;
80409;SDS011;69746;45.596;10.154;2023-08-20T08:08:35;3.05;;;2.72;;
80409;SDS011;69746;45.596;10.154;2023-08-20T08:11:01;2.83;;;2.53;;
80409;SDS011;69746;45.596;10.154;2023-08-20T08:13:27;2.63;;;2.42;;
80409;SDS011;69746;45.596;10.154;2023-08-20T08:15:52;3.00;;;2.70;;
80409;SDS011;69746;45.596;10.154;2023-08-20T08:18:21;2.78;;;2.58;;
80409;SDS011;69746;45.596;10.154;2023-08-20T08:20:48;2.83;;;2.53;;
80409;SDS011;69746;45.596;10.154;2023-08-20T08:23:15;3.10;;;2.80;;
80409;SDS011;69746;45.596;10.154;2023-08-20T08:25:41;3.08;;;2.88;;
80409;SDS011;69746;45.596;10.154;2023-08-20T08:28:08;2.60;;;2.40;;
80409;SDS011;69746;45.596;10.154;2023-08-20T08:32:59;3.10;;;2.80;;
80409;SDS011;69746;45.596;10.154;2023-08-20T08:35:25;3.47;;;2.75;;
80409;SDS011;69746;45.596;10.154;2023-08-20T08:37:51;2.92;;;2.63;;
80409;SDS011;69746;45.596;10.154;2023-08-20T08:40:17;2.65;;;2.45;;
80409;SDS011;69746;45.596;10.154;2023-08-20T08:42:43;3.03;;;2.72;;
80409;SDS011;69746;45.596;10.154;2023-08-20T08:45:18;2.80;;;2.50;;
80409;SDS011;69746;45.596;10.154;2023-08-20T08:47:45;3.15;;;2.85;;
80409;SDS011;69746;45.596;10.154;2023-08-20T08:50:11;2.58;;;2.38;;
80409;SDS011;69746;45.596;10.154;2023-08-20T08:52:37;2.90;;;2.70;;
80409;SDS011;69746;45.596;10.154;2023-08-20T08:57:33;3.47;;;3.17;;
80409;SDS011;69746;45.596;10.154;2023-08-20T09:00:00;3.00;;;2.70;;
80409;SDS011;69746;45.596;10.154;2023-08-20T09:02:26;3.08;;;2.78;;
80409;SDS011;69746;45.596;10.154;2023-08-20T09:04:53;3.20;;;2.90;;
80409;SDS011;69746;45.596;10.154;2023-08-20T09:07:19;3.20;;;2.50;;
80409;SDS011;69746;45.596;10.154;2023-08-20T09:09:47;3.03;;;2.72;;
80409;SDS011;69746;45.596;10.154;2023-08-20T09:12:20;2.58;;;2.38;;
80409;SDS011;69746;45.596;10.154;2023-08-20T09:14:47;3.10;;;2.80;;
80409;SDS011;69746;45.596;10.154;2023-08-20T09:17:15;2.85;;;2.40;;
80409;SDS011;69746;45.596;10.154;2023-08-20T09:19:43;2.70;;;2.50;;
80409;SDS011;69746;45.596;10.154;2023-08-20T09:22:11;3.35;;;2.80;;
80409;SDS011;69746;45.596;10.154;2023-08-20T09:24:39;2.92;;;2.63;;
80409;SDS011;69746;45.596;10.154;2023-08-20T09:27:12;2.90;;;2.60;;
80409;SDS011;69746;45.596;10.154;2023-08-20T09:29:45;2.88;;;2.60;;
80409;SDS011;69746;45.596;10.154;2023-08-20T09:32:15;2.75;;;2.42;;
80409;SDS011;69746;45.596;10.154;2023-08-20T09:34:43;3.08;;;2.78;;
80409;SDS011;69746;45.596;10.154;2023-08-20T09:37:09;2.78;;;2.55;;
80409;SDS011;69746;45.596;10.154;2023-08-20T09:42:02;3.47;;;3.17;;
80409;SDS011;69746;45.596;10.154;2023-08-20T09:44:32;3.08;;;2.70;;
80409;SDS011;69746;45.596;10.154;2023-08-20T09:47:02;3.50;;;3.20;;
80409;SDS011;69746;45.596;10.154;2023-08-20T09:49:32;3.05;;;2.78;;
80409;SDS011;69746;45.596;10.154;2023-08-20T09:52:04;3.13;;;2.83;;
80409;SDS011;69746;45.596;10.154;2023-08-20T09:54:39;3.10;;;2.80;;
80409;SDS011;69746;45.596;10.154;2023-08-20T09:57:33;3.80;;;3.50;;
80409;SDS011;69746;45.596;10.154;2023-08-20T10:00:04;3.50;;;3.20;;
80409;SDS011;69746;45.596;10.154;2023-08-20T10:02:35;3.42;;;3.13;;
80409;SDS011;69746;45.596;10.154;2023-08-20T10:05:02;3.40;;;3.10;;
80409;SDS011;69746;45.596;10.154;2023-08-20T10:07:30;3.25;;;2.95;;
80409;SDS011;69746;45.596;10.154;2023-08-20T10:10:00;3.35;;;3.05;;
80409;SDS011;69746;45.596;10.154;2023-08-20T10:12:28;3.63;;;3.33;;
80409;SDS011;69746;45.596;10.154;2023-08-20T10:14:59;3.30;;;3.00;;
80409;SDS011;69746;45.596;10.154;2023-08-20T10:17:29;3.80;;;3.50;;
80409;SDS011;69746;45.596;10.154;2023-08-20T10:19:59;3.30;;;3.00;;
80409;SDS011;69746;45.596;10.154;2023-08-20T10:25:06;3.00;;;2.70;;
80409;SDS011;69746;45.596;10.154;2023-08-20T10:27:36;3.10;;;2.80;;
80409;SDS011;69746;45.596;10.154;2023-08-20T10:30:08;2.90;;;2.60;;
80409;SDS011;69746;45.596;10.154;2023-08-20T10:32:51;2.88;;;2.65;;
80409;SDS011;69746;45.596;10.154;2023-08-20T10:35:19;2.92;;;2.70;;
80409;SDS011;69746;45.596;10.154;2023-08-20T10:48:48;3.00;;;2.70;;
80409;SDS011;69746;45.596;10.154;2023-08-20T10:51:19;2.90;;;2.63;;
80409;SDS011;69746;45.596;10.154;2023-08-20T10:54:08;2.95;;;2.70;;
80409;SDS011;69746;45.596;10.154;2023-08-20T10:56:39;2.88;;;2.67;;
80409;SDS011;69746;45.596;10.154;2023-08-20T10:59:28;2.67;;;2.47;;
80409;SDS011;69746;45.596;10.154;2023-08-20T11:01:58;2.80;;;2.53;;
80409;SDS011;69746;45.596;10.154;2023-08-20T11:04:29;3.10;;;2.67;;
80409;SDS011;69746;45.596;10.154;2023-08-20T11:06:58;2.63;;;2.42;;
80409;SDS011;69746;45.596;10.154;2023-08-20T11:09:26;3.40;;;2.45;;
80409;SDS011;69746;45.596;10.154;2023-08-20T11:11:57;3.22;;;2.92;;
80409;SDS011;69746;45.596;10.154;2023-08-20T11:14:24;2.72;;;2.53;;
80409;SDS011;69746;45.596;10.154;2023-08-20T11:16:56;3.33;;;3.03;;
80409;SDS011;69746;45.596;10.154;2023-08-20T11:19:23;3.00;;;2.70;;
80409;SDS011;69746;45.596;10.154;2023-08-20T11:21:55;3.22;;;2.92;;
80409;SDS011;69746;45.596;10.154;2023-08-20T11:24:21;3.00;;;2.70;;
80409;SDS011;69746;45.596;10.154;2023-08-20T11:26:47;2.70;;;2.50;;
80409;SDS011;69746;45.596;10.154;2023-08-20T11:29:16;2.72;;;2.50;;
80409;SDS011;69746;45.596;10.154;2023-08-20T11:31:45;2.83;;;2.63;;
80409;SDS011;69746;45.596;10.154;2023-08-20T11:34:13;2.97;;;2.70;;
80409;SDS011;69746;45.596;10.154;2023-08-20T11:36:39;2.92;;;2.63;;
80409;SDS011;69746;45.596;10.154;2023-08-20T11:39:06;2.60;;;2.40;;
80409;SDS011;69746;45.596;10.154;2023-08-20T11:41:35;2.67;;;2.47;;
80409;SDS011;69746;45.596;10.154;2023-08-20T11:44:02;2.60;;;2.40;;
80409;SDS011;69746;45.596;10.154;2023-08-20T11:46:28;3.20;;;2.90;;
80409;SDS011;69746;45.596;10.154;2023-08-20T11:49:06;2.78;;;2.50;;
80409;SDS011;69746;45.596;10.154;2023-08-20T11:54:13;2.55;;;2.35;;
80409;SDS011;69746;45.596;10.154;2023-08-20T11:56:45;2.60;;;2.40;;
80409;SDS011;69746;45.596;10.154;2023-08-20T11:59:12;2.45;;;2.25;;
80409;SDS011;69746;45.596;10.154;2023-08-20T12:01:39;2.65;;;2.45;;
80409;SDS011;69746;45.596;10.154;2023-08-20T12:04:08;2.85;;;2.55;;
80409;SDS011;69746;45.596;10.154;2023-08-20T12:06:36;2.65;;;2.40;;
80409;SDS011;69746;45.596;10.154;2023-08-20T12:09:18;2.90;;;2.60;;
80409;SDS011;69746;45.596;10.154;2023-08-20T12:11:49;2.63;;;2.40;;
80409;SDS011;69746;45.596;10.154;2023-08-20T12:14:18;3.00;;;2.70;;
80409;SDS011;69746;45.596;10.154;2023-08-20T12:16:46;2.70;;;2.50;;
80409;SDS011;69746;45.596;10.154;2023-08-20T12:21:42;3.20;;;2.90;;
80409;SDS011;69746;45.596;10.154;2023-08-20T12:24:08;3.13;;;2.83;;
80409;SDS011;69746;45.596;10.154;2023-08-20T12:26:35;2.40;;;2.20;;
80409;SDS011;69746;45.596;10.154;2023-08-20T12:29:02;2.33;;;2.13;;
80409;SDS011;69746;45.596;10.154;2023-08-20T12:31:30;2.47;;;2.28;;
80409;SDS011;69746;45.596;10.154;2023-08-20T12:33:59;2.78;;;2.50;;
80409;SDS011;69746;45.596;10.154;2023-08-20T12:36:26;2.75;;;2.53;;
80409;SDS011;69746;45.596;10.154;2023-08-20T12:38:52;2.42;;;2.22;;
80409;SDS011;69746;45.596;10.154;2023-08-20T12:41:18;3.05;;;2.65;;
80409;SDS011;69746;45.596;10.154;2023-08-20T12:43:45;2.60;;;2.40;;
80409;SDS011;69746;45.596;10.154;2023-08-20T12:46:13;2.90;;;2.70;;
80409;SDS011;69746;45.596;10.154;2023-08-20T12:48:39;2.50;;;2.30;;
80409;SDS011;69746;45.596;10.154;2023-08-20T12:51:05;2.50;;;2.20;;
80409;SDS011;69746;45.596;10.154;2023-08-20T12:53:31;2.65;;;2.35;;
80409;SDS011;69746;45.596;10.154;2023-08-20T12:55:58;2.80;;;2.50;;
80409;SDS011;69746;45.596;10.154;2023-08-20T12:58:24;2.50;;;2.30;;
80409;SDS011;69746;45.596;10.154;2023-08-20T13:00:50;3.33;;;3.03;;
80409;SDS011;69746;45.596;10.154;2023-08-20T13:03:17;2.60;;;2.40;;
80409;SDS011;69746;45.596;10.154;2023-08-20T13:08:09;2.70;;;2.50;;
80409;SDS011;69746;45.596;10.154;2023-08-20T13:10:40;2.78;;;2.47;;
80409;SDS011;69746;45.596;10.154;2023-08-20T13:13:09;2.63;;;2.42;;
80409;SDS011;69746;45.596;10.154;2023-08-20T13:15:38;2.40;;;2.20;;
80409;SDS011;69746;45.596;10.154;2023-08-20T13:18:05;2.90;;;2.70;;
80409;SDS011;69746;45.596;10.154;2023-08-20T13:20:33;3.10;;;2.85;;
80409;SDS011;69746;45.596;10.154;2023-08-20T13:22:58;3.00;;;2.60;;
80409;SDS011;69746;45.596;10.154;2023-08-20T13:25:24;3.10;;;2.80;;
80409;SDS011;69746;45.596;10.154;2023-08-20T13:27:50;2.60;;;2.40;;
80409;SDS011;69746;45.596;10.154;2023-08-20T13:30:16;2.85;;;2.65;;
80409;SDS011;69746;45.596;10.154;2023-08-20T13:32:43;3.30;;;3.00;;
80409;SDS011;69746;45.596;10.154;2023-08-20T13:35:09;2.60;;;2.40;;
80409;SDS011;69746;45.596;10.154;2023-08-20T13:37:35;2.83;;;2.58;;
80409;SDS011;69746;45.596;10.154;2023-08-20T13:40:01;3.20;;;2.90;;
80409;SDS011;69746;45.596;10.154;2023-08-20T13:42:29;2.53;;;2.33;;
80409;SDS011;69746;45.596;10.154;2023-08-20T13:44:55;2.50;;;2.30;;
80409;SDS011;69746;45.596;10.154;2023-08-20T13:47:21;2.97;;;2.67;;
80409;SDS011;69746;45.596;10.154;2023-08-20T13:49:46;2.50;;;2.30;;
80409;SDS011;69746;45.596;10.154;2023-08-20T13:52:12;2.42;;;2.22;;
80409;SDS011;69746;45.596;10.154;2023-08-20T13:54:39;2.45;;;2.25;;
80409;SDS011;69746;45.596;10.154;2023-08-20T13:57:04;2.78;;;2.53;;
80409;SDS011;69746;45.596;10.154;2023-08-20T13:59:30;2.53;;;2.22;;
80409;SDS011;69746;45.596;10.154;2023-08-20T14:02:02;2.63;;;2.40;;
80409;SDS011;69746;45.596;10.154;2023-08-20T14:04:28;2.90;;;2.60;;
80409;SDS011;69746;45.596;10.154;2023-08-20T14:06:54;2.65;;;2.45;;
80409;SDS011;69746;45.596;10.154;2023-08-20T14:09:20;2.67;;;2.47;;
80409;SDS011;69746;45.596;10.154;2023-08-20T14:11:48;2.47;;;2.25;;
80409;SDS011;69746;45.596;10.154;2023-08-20T14:14:14;3.20;;;2.90;;
80409;SDS011;69746;45.596;10.154;2023-08-20T14:16:40;2.72;;;2.53;;
80409;SDS011;69746;45.596;10.154;2023-08-20T14:19:05;3.60;;;2.58;;
80409;SDS011;69746;45.596;10.154;2023-08-20T14:21:34;2.67;;;2.47;;
80409;SDS011;69746;45.596;10.154;2023-08-20T14:24:00;3.15;;;2.85;;
80409;SDS011;69746;45.596;10.154;2023-08-20T14:26:26;2.78;;;2.50;;
80409;SDS011;69746;45.596;10.154;2023-08-20T14:28:52;2.90;;;2.60;;
80409;SDS011;69746;45.596;10.154;2023-08-20T14:31:18;3.20;;;2.83;;
80409;SDS011;69746;45.596;10.154;2023-08-20T14:33:45;2.85;;;2.58;;
80409;SDS011;69746;45.596;10.154;2023-08-20T14:36:13;3.40;;;3.10;;
80409;SDS011;69746;45.596;10.154;2023-08-20T14:38:46;2.35;;;2.15;;
80409;SDS011;69746;45.596;10.154;2023-08-20T14:41:12;3.05;;;2.75;;
80409;SDS011;69746;45.596;10.154;2023-08-20T14:43:38;3.20;;;2.90;;
80409;SDS011;69746;45.596;10.154;2023-08-20T14:46:04;2.50;;;2.30;;
80409;SDS011;69746;45.596;10.154;2023-08-20T14:48:30;3.35;;;3.05;;
80409;SDS011;69746;45.596;10.154;2023-08-20T14:50:55;2.75;;;2.50;;
80409;SDS011;69746;45.596;10.154;2023-08-20T14:53:21;3.05;;;2.75;;
80409;SDS011;69746;45.596;10.154;2023-08-20T14:55:47;4.07;;;3.63;;
80409;SDS011;69746;45.596;10.154;2023-08-20T14:58:13;5.45;;;3.85;;
80409;SDS011;69746;45.596;10.154;2023-08-20T15:00:39;9.02;;;5.38;;
80409;SDS011;69746;45.596;10.154;2023-08-20T15:03:05;9.00;;;4.50;;
80409;SDS011;69746;45.596;10.154;2023-08-20T15:05:33;5.72;;;4.50;;
80409;SDS011;69746;45.596;10.154;2023-08-20T15:08:01;8.45;;;4.78;;
80409;SDS011;69746;45.596;10.154;2023-08-20T15:10:30;11.52;;;5.03;;
80409;SDS011;69746;45.596;10.154;2023-08-20T15:12:56;12.77;;;4.80;;
80409;SDS011;69746;45.596;10.154;2023-08-20T15:15:22;7.63;;;4.65;;
80409;SDS011;69746;45.596;10.154;2023-08-20T15:17:47;7.82;;;4.75;;
80409;SDS011;69746;45.596;10.154;2023-08-20T15:20:15;5.53;;;4.20;;
80409;SDS011;69746;45.596;10.154;2023-08-20T15:22:41;9.55;;;4.20;;